Domov               UVHVVR             MKGP            O straneh              
ZDRAVSTVENO VARSTVO RASTLIN
  MREŽA AGROMET. POSTAJ
 ► PROGNOSTIČNA OBVESTILA
AGROMETEOROLOŠKI PODATKI -
ARSO
OBVLADOVANJE TVEGANJ ZARADI
NEUGODNIH VREMENSKIH RAZMER
  ► NARAVNE NESREČE
  ► SUŠA/MOČA
  ► NAMAKANJE
  ► ŽLED (gozdarstvo)
KARTOGRAFSKI PRIKAZI
SPLETNE POVEZAVE
PROJEKTI IN PUBLIKACIJE

AGROMETEOROLOŠKA MREŽA: VREMENSKE POSTAJE IN FENOLOŠKA OPAZOVANJA

Pregled podatkov za lokacijo Pesnica, meteorološka postaja 25158

Pregled senzorjev na lokaciji

ID Ime Zadnja
vrednost
Datum
zadnje
spremembe
Tip
senzorja
913 Omočenost lista (U) 0 U 25.2.2018 12:00 A730WET
916 Padavine (mm) 0 mm 25.2.2018 12:00 Generic 0.2 mm
915 Relativna vlaga 2 m (% RH) 50,79 % RH 25.2.2018 12:00 Generic 0 - 100 %
914 Temperatura 2 m (°C) -6,79 °C 25.2.2018 12:00 Generic -40 - +60 °C
3981 Hitrost vetra (km/h) 4,4 km/h 25.2.2018 12:00 Generic 200 km/h

Pregled podatkov zadnjih 24 ur

Zap.
št.
Datum in čas Pesnica
Omočenost
lista
Padavine Relativna
vlaga
2
m
Temperatura
2
m
Hitrost
vetra
1 25.2.2018 12:30
2 25.2.2018 12:00 0 0 50,8 -6,8 4,4
3 25.2.2018 11:30 0 0 53,5 -6,8 4,9
4 25.2.2018 11:00 0 0 57,5 -7,2 5
5 25.2.2018 10:30 0 0 55,3 -7,6 4,7
6 25.2.2018 10:00 0 0 56,1 -7,2 5,3
7 25.2.2018 09:30 0 0 56 -8,1 2,4
8 25.2.2018 09:00 0 0 58,1 -8,8 2,7
9 25.2.2018 08:30 0 0 61 -9,5 4,7
10 25.2.2018 08:00 0 0 65 -10 4,3
11 25.2.2018 07:30 0 0 65,7 -10,2 1,8
12 25.2.2018 07:00 0 0 65 -10 5,1
13 25.2.2018 06:30 0 0 64,2 -9,7 6,9
14 25.2.2018 06:00 0 0 63,7 -9,4 6,2
15 25.2.2018 05:30 0 0 63,9 -9,4 4,4
16 25.2.2018 05:00 0 0 66,4 -9,1 2,4
17 25.2.2018 04:30 0 0 68,6 -9 2,2
18 25.2.2018 04:00 0 0 71,4 -8,7 0,4
19 25.2.2018 03:30 0 0 68,4 -7,9 2,4
20 25.2.2018 03:00 0 0 67,6 -7,7 4,5
21 25.2.2018 02:30 0 0 68,3 -7,6 2,7
22 25.2.2018 02:00 0 0 68,3 -7,4 3,6
23 25.2.2018 01:30 0 0 66,8 -7 4,9
24 25.2.2018 01:00 0 0 66,4 -6,4 7,7
25 25.2.2018 00:30 0 0 62,1 -5,7 7,4
26 25.2.2018 00:00 0 0 60 -5,3 6,2
27 24.2.2018 23:30 0 0 59,7 -5,2 7,3
28 24.2.2018 23:00 0 0 60,7 -5,1 6,7
29 24.2.2018 22:30 0 0 60,2 -5 8,1
30 24.2.2018 22:00 0 0 59 -4,8 9,2
31 24.2.2018 21:30 0 0 63 -4,6 9,8
32 24.2.2018 21:00 0 0 66,6 -4,1 5,3
33 24.2.2018 20:30 0 0 65,8 -3,4 3,6
34 24.2.2018 20:00 0 0 59,4 -3,1 7,2
35 24.2.2018 19:30 0 0 62,7 -3,5 1,1
36 24.2.2018 19:00 0 0 69,4 -4 0
37 24.2.2018 18:30 0 0 67,3 -4,2 0,3
38 24.2.2018 18:00 0 0 66,8 -4 0,1
39 24.2.2018 17:30 0 0 74,3 -4,2 0
40 24.2.2018 17:00 0 0 74,9 -3 0
41 24.2.2018 16:30 0 0,2 66,5 -1,1 0
42 24.2.2018 16:00 0 0,2 62,5 0 0
43 24.2.2018 15:30 0 0,6 56,3 0,4 0,3
44 24.2.2018 15:00 0 0,2 63,1 -0,2 0
45 24.2.2018 14:30 0 0,2 67,3 -0,3 0
46 24.2.2018 14:00 0 0,2 71,7 -0,8 0
47 24.2.2018 13:30 1 0,2 73 -1,2 0
48 24.2.2018 13:00 1 0 75,6 -1,5 0
© 2011 Ministrstvo za kmetijstvo, gozdarstvo in prehrano. Vse pravice pridržane.